createdAt,value
2023-03-29T00:01:35.950Z,1.03
2023-03-29T00:04:39.199Z,0.90
2023-03-29T00:07:41.468Z,0.97
2023-03-29T00:10:43.631Z,1.07
2023-03-29T00:13:45.751Z,0.90
2023-03-29T00:16:47.917Z,1.00
2023-03-29T00:19:50.063Z,0.97
2023-03-29T00:22:52.159Z,0.73
2023-03-29T00:25:54.540Z,0.80
2023-03-29T00:28:56.553Z,0.70
2023-03-29T00:31:59.153Z,0.73
2023-03-29T00:35:01.640Z,0.87
2023-03-29T00:38:06.414Z,1.17
2023-03-29T00:41:09.415Z,1.00
2023-03-29T00:44:49.072Z,1.03
2023-03-29T00:47:58.708Z,1.20
2023-03-29T00:51:07.562Z,1.33
2023-03-29T00:54:15.489Z,1.33
2023-03-29T00:57:20.838Z,1.27
2023-03-29T01:00:28.822Z,1.03
2023-03-29T01:03:41.644Z,1.40
2023-03-29T01:06:49.428Z,1.00
2023-03-29T01:09:58.508Z,0.90
2023-03-29T01:13:06.905Z,1.17
2023-03-29T01:16:12.012Z,1.10
2023-03-29T01:19:19.206Z,0.80
2023-03-29T01:22:39.056Z,0.90
2023-03-29T01:26:19.795Z,0.90
2023-03-29T01:29:26.424Z,1.17
2023-03-29T01:32:35.526Z,1.20
2023-03-29T01:35:45.649Z,1.00
2023-03-29T01:39:05.586Z,0.90
2023-03-29T01:42:46.916Z,1.00
2023-03-29T01:46:07.760Z,1.30
2023-03-29T01:49:27.777Z,1.00
2023-03-29T01:52:36.239Z,1.40
2023-03-29T01:55:47.538Z,1.23
2023-03-29T01:58:54.584Z,1.00
2023-03-29T02:02:01.404Z,0.90
2023-03-29T02:05:04.137Z,0.93
2023-03-29T02:08:10.010Z,1.00
2023-03-29T02:11:12.118Z,1.10
2023-03-29T02:14:14.218Z,0.90
2023-03-29T02:17:20.621Z,1.43
2023-03-29T02:20:30.342Z,1.00
2023-03-29T02:23:41.653Z,1.20
2023-03-29T02:26:43.693Z,0.97
2023-03-29T02:29:47.957Z,0.90
2023-03-29T02:33:10.903Z,0.80
2023-03-29T02:36:19.097Z,1.10
2023-03-29T02:39:23.125Z,0.70
2023-03-29T02:42:28.291Z,0.90
2023-03-29T02:45:31.698Z,1.00
2023-03-29T02:48:37.344Z,0.80
2023-03-29T02:51:39.696Z,1.00
2023-03-29T02:54:45.571Z,0.83
2023-03-29T02:57:47.615Z,1.03
2023-03-29T03:00:50.595Z,0.87
2023-03-29T03:03:52.914Z,1.10
2023-03-29T03:06:55.457Z,1.00
2023-03-29T03:09:57.919Z,1.00
2023-03-29T03:13:00.085Z,0.77
2023-03-29T03:16:04.418Z,1.30
2023-03-29T03:19:07.529Z,0.80
2023-03-29T03:22:10.145Z,1.07
2023-03-29T03:25:12.411Z,1.07
2023-03-29T03:28:15.272Z,0.70
2023-03-29T03:31:18.124Z,0.80
2023-03-29T03:34:46.476Z,1.07
2023-03-29T03:37:48.655Z,0.83
2023-03-29T03:40:56.572Z,1.03
2023-03-29T03:43:59.390Z,0.90
2023-03-29T03:47:01.713Z,0.90
2023-03-29T03:50:05.443Z,0.80
2023-03-29T03:53:07.790Z,0.83
2023-03-29T03:56:30.386Z,0.87
2023-03-29T03:59:41.637Z,0.97
2023-03-29T04:02:48.424Z,0.80
2023-03-29T04:05:50.911Z,0.80
2023-03-29T04:08:55.033Z,1.10
2023-03-29T04:12:09.501Z,0.90
2023-03-29T04:15:14.293Z,1.17
2023-03-29T04:18:24.333Z,0.80
2023-03-29T04:21:29.972Z,0.80
2023-03-29T04:24:31.911Z,1.37
2023-03-29T04:28:07.441Z,1.20
2023-03-29T04:31:29.725Z,0.70
2023-03-29T04:34:46.807Z,0.70
2023-03-29T04:37:51.292Z,0.80
2023-03-29T04:40:56.167Z,1.17
2023-03-29T04:44:03.940Z,0.97
2023-03-29T04:47:07.120Z,1.47
2023-03-29T04:50:41.737Z,1.00
2023-03-29T04:53:43.789Z,1.00
2023-03-29T04:56:46.262Z,0.90
2023-03-29T05:00:15.460Z,0.80
2023-03-29T05:03:45.615Z,0.90
2023-03-29T05:06:54.643Z,0.93
2023-03-29T05:09:57.711Z,0.90
2023-03-29T05:12:59.918Z,1.00
2023-03-29T05:16:04.622Z,0.97
2023-03-29T05:19:07.003Z,1.50
2023-03-29T05:22:12.050Z,1.13
2023-03-29T05:25:14.267Z,0.90
2023-03-29T05:28:18.480Z,1.00
2023-03-29T05:31:20.707Z,1.40
2023-03-29T05:34:27.666Z,1.23
2023-03-29T05:37:34.545Z,0.90
2023-03-29T05:40:38.122Z,1.13
2023-03-29T05:44:08.767Z,1.00
2023-03-29T05:47:12.182Z,1.50
2023-03-29T05:50:14.734Z,1.10
2023-03-29T05:53:17.981Z,0.77
2023-03-29T05:56:20.154Z,1.13
2023-03-29T05:59:23.852Z,0.93
2023-03-29T06:02:26.585Z,1.10
2023-03-29T06:05:29.052Z,0.80
2023-03-29T06:08:35.344Z,0.80
2023-03-29T06:12:01.963Z,1.10
2023-03-29T06:15:13.628Z,0.90
2023-03-29T06:18:20.768Z,0.67
2023-03-29T06:21:23.578Z,0.70
2023-03-29T06:24:26.238Z,0.80
2023-03-29T06:27:36.430Z,0.80
2023-03-29T06:30:39.250Z,0.70
2023-03-29T06:33:43.405Z,0.80
2023-03-29T06:37:03.875Z,0.70
2023-03-29T06:40:07.183Z,0.90
2023-03-29T06:43:16.057Z,1.07
2023-03-29T06:46:28.152Z,0.70
2023-03-29T06:49:32.284Z,0.90
2023-03-29T06:52:46.412Z,1.10
2023-03-29T06:55:49.773Z,0.90
2023-03-29T06:59:07.489Z,1.00
2023-03-29T07:02:17.689Z,0.70
2023-03-29T07:05:24.173Z,0.90
2023-03-29T07:08:31.452Z,1.10
2023-03-29T07:11:37.070Z,0.90
2023-03-29T07:14:56.834Z,0.90
2023-03-29T07:18:04.934Z,0.93
2023-03-29T07:21:09.068Z,1.50
2023-03-29T07:24:11.127Z,0.97
2023-03-29T07:27:13.528Z,1.33
2023-03-29T07:30:18.147Z,0.80
2023-03-29T07:33:20.347Z,1.20
2023-03-29T07:36:34.488Z,1.30
2023-03-29T07:39:37.396Z,1.10
2023-03-29T07:42:59.041Z,1.27
2023-03-29T07:46:05.484Z,1.50
2023-03-29T07:49:10.127Z,1.23
2023-03-29T07:52:12.396Z,1.13
2023-03-29T07:55:15.386Z,1.60
2023-03-29T07:58:30.612Z,1.17
2023-03-29T08:01:33.219Z,0.97
2023-03-29T08:04:38.018Z,1.27
2023-03-29T08:08:02.994Z,1.60
2023-03-29T08:11:34.440Z,1.43
2023-03-29T08:14:39.146Z,1.00
2023-03-29T08:18:01.666Z,1.40
2023-03-29T08:21:05.515Z,1.10
2023-03-29T08:24:08.194Z,1.20
2023-03-29T08:27:20.236Z,1.23
2023-03-29T08:30:22.428Z,1.40
2023-03-29T08:33:25.777Z,1.93
2023-03-29T08:36:43.640Z,1.43
2023-03-29T08:40:02.597Z,1.17
2023-03-29T08:43:14.746Z,1.90
2023-03-29T08:47:29.004Z,1.63
2023-03-29T08:50:41.041Z,1.53
2023-03-29T08:53:50.337Z,1.73
2023-03-29T08:57:06.795Z,1.50
2023-03-29T09:00:22.812Z,1.53
2023-03-29T09:03:30.498Z,1.70
2023-03-29T09:06:39.371Z,1.40
2023-03-29T09:09:51.186Z,1.50
2023-03-29T09:13:26.799Z,1.67
2023-03-29T09:16:43.537Z,2.00
2023-03-29T09:20:23.062Z,1.70
2023-03-29T09:23:37.199Z,1.97
2023-03-29T09:27:16.914Z,1.60
2023-03-29T09:30:35.763Z,2.07
2023-03-29T09:33:46.801Z,1.90
2023-03-29T09:36:59.011Z,1.67
2023-03-29T09:40:05.371Z,1.43
2023-03-29T09:43:32.194Z,1.30
2023-03-29T09:46:41.938Z,2.07
2023-03-29T09:49:48.848Z,2.00
2023-03-29T09:52:51.150Z,2.00
2023-03-29T09:55:57.042Z,2.27
2023-03-29T09:59:13.585Z,1.80
2023-03-29T10:02:16.039Z,1.63
2023-03-29T10:05:18.664Z,1.80
2023-03-29T10:08:36.016Z,2.13
2023-03-29T10:11:39.665Z,1.80
2023-03-29T10:14:46.126Z,1.87
2023-03-29T10:17:49.068Z,1.80
2023-03-29T10:20:51.058Z,2.13
2023-03-29T10:23:59.680Z,1.70
2023-03-29T10:27:07.052Z,2.17
2023-03-29T10:30:13.293Z,1.70
2023-03-29T10:33:22.181Z,2.00
2023-03-29T10:36:27.283Z,1.80
2023-03-29T10:39:34.084Z,2.17
2023-03-29T10:42:36.151Z,1.80
2023-03-29T10:45:40.095Z,1.53
2023-03-29T10:48:47.762Z,1.23
2023-03-29T10:51:50.844Z,1.50
2023-03-29T10:54:55.621Z,1.30
2023-03-29T10:58:06.731Z,0.90
2023-03-29T11:01:17.696Z,0.93
2023-03-29T11:04:47.876Z,0.90
2023-03-29T11:08:31.738Z,1.10
2023-03-29T11:12:15.959Z,1.00
2023-03-29T11:15:27.375Z,0.90
2023-03-29T11:19:14.955Z,1.60
2023-03-29T11:23:13.997Z,1.13
2023-03-29T11:26:42.881Z,1.27
2023-03-29T11:30:06.861Z,1.37
2023-03-29T11:33:17.968Z,1.37
2023-03-29T11:36:57.545Z,1.63
2023-03-29T11:40:11.263Z,1.60
2023-03-29T11:43:23.153Z,1.80
2023-03-29T11:46:42.802Z,1.53
2023-03-29T11:49:52.652Z,1.73
2023-03-29T11:53:02.226Z,1.50
2023-03-29T11:56:15.738Z,1.40
2023-03-29T11:59:41.797Z,1.80
2023-03-29T12:03:03.207Z,2.07
2023-03-29T12:06:17.005Z,1.63
2023-03-29T12:09:33.643Z,1.60
2023-03-29T12:12:53.170Z,1.67
2023-03-29T12:16:07.013Z,1.30
2023-03-29T12:19:24.182Z,1.23
2023-03-29T12:22:26.546Z,1.50
2023-03-29T12:25:41.352Z,1.20
2023-03-29T12:28:49.320Z,1.10
2023-03-29T12:32:19.431Z,1.50
2023-03-29T12:36:00.049Z,1.10
2023-03-29T12:39:21.722Z,1.03
2023-03-29T12:43:07.155Z,1.10
2023-03-29T12:46:33.811Z,1.00
2023-03-29T12:49:39.195Z,1.03
2023-03-29T12:52:43.102Z,1.20
2023-03-29T12:55:45.037Z,1.13
2023-03-29T12:59:05.838Z,1.13
2023-03-29T13:02:17.885Z,1.00
2023-03-29T13:05:59.080Z,1.00
2023-03-29T13:09:24.258Z,0.93
2023-03-29T13:12:29.632Z,0.80
2023-03-29T13:15:34.939Z,1.00
2023-03-29T13:19:06.877Z,0.90
2023-03-29T13:22:27.677Z,1.00
2023-03-29T13:25:46.262Z,0.80
2023-03-29T13:29:09.768Z,0.60
2023-03-29T13:32:41.211Z,0.67
2023-03-29T13:35:49.317Z,0.57
2023-03-29T13:38:54.662Z,0.80
2023-03-29T13:42:08.395Z,0.73
2023-03-29T13:45:26.418Z,0.80
2023-03-29T13:48:46.289Z,0.73
2023-03-29T13:52:04.752Z,0.87
2023-03-29T13:55:25.423Z,0.80
2023-03-29T13:58:38.276Z,0.80
2023-03-29T14:01:46.983Z,0.77
2023-03-29T14:04:52.413Z,0.80
2023-03-29T14:07:55.724Z,1.03
2023-03-29T14:11:02.483Z,1.10
2023-03-29T14:14:08.406Z,0.93
2023-03-29T14:17:22.920Z,1.07
2023-03-29T14:20:25.746Z,1.10
2023-03-29T14:23:31.925Z,1.10
2023-03-29T14:26:36.070Z,1.23
2023-03-29T14:29:38.604Z,0.87
2023-03-29T14:32:40.818Z,1.13
2023-03-29T14:35:42.961Z,1.07
2023-03-29T14:38:59.725Z,1.30
2023-03-29T14:42:02.349Z,1.07
2023-03-29T14:45:06.556Z,1.07
2023-03-29T14:48:12.481Z,1.10
2023-03-29T14:51:14.939Z,1.10
2023-03-29T14:54:22.317Z,1.03
2023-03-29T14:57:27.594Z,1.00
2023-03-29T15:00:44.974Z,1.20
2023-03-29T15:03:57.640Z,1.40
2023-03-29T15:07:00.134Z,1.10
2023-03-29T15:10:05.325Z,1.03
2023-03-29T15:13:08.821Z,1.10
2023-03-29T15:16:17.030Z,1.10
2023-03-29T15:19:22.117Z,1.10
2023-03-29T15:22:24.152Z,1.40
2023-03-29T15:25:35.294Z,1.40
2023-03-29T15:28:57.673Z,1.13
2023-03-29T15:31:59.883Z,1.47
2023-03-29T15:35:05.230Z,1.20
2023-03-29T15:38:07.327Z,1.30
2023-03-29T15:41:10.781Z,1.40
2023-03-29T15:44:17.476Z,1.20
2023-03-29T15:47:19.653Z,1.30
2023-03-29T15:50:22.151Z,1.20
2023-03-29T15:53:24.578Z,1.23
2023-03-29T15:56:27.222Z,1.10
2023-03-29T15:59:31.403Z,1.10
2023-03-29T16:02:33.738Z,1.47
2023-03-29T16:05:36.146Z,1.30
2023-03-29T16:08:38.183Z,1.70
2023-03-29T16:11:42.072Z,1.40
2023-03-29T16:14:44.125Z,1.60
2023-03-29T16:17:46.429Z,1.37
2023-03-29T16:20:48.474Z,1.70
2023-03-29T16:23:51.542Z,1.70
2023-03-29T16:26:55.925Z,1.57
2023-03-29T16:29:59.173Z,1.73
2023-03-29T16:33:06.321Z,1.80
2023-03-29T16:36:08.949Z,1.80
2023-03-29T16:39:13.624Z,1.90
2023-03-29T16:42:15.627Z,1.97
2023-03-29T16:45:18.864Z,2.10
2023-03-29T16:48:20.920Z,2.30
2023-03-29T16:51:23.146Z,2.17
2023-03-29T16:54:25.959Z,2.20
2023-03-29T16:57:28.529Z,2.37
2023-03-29T17:00:30.857Z,1.83
2023-03-29T17:06:35.418Z,2.00
2023-03-29T17:09:37.613Z,1.80
2023-03-29T17:12:40.128Z,1.83
2023-03-29T17:15:42.592Z,2.33
2023-03-29T17:18:44.915Z,2.30
2023-03-29T17:21:47.370Z,1.73
2023-03-29T17:24:50.144Z,2.43
2023-03-29T17:27:54.587Z,2.10
2023-03-29T17:30:57.537Z,2.33
2023-03-29T17:34:01.017Z,2.10
2023-03-29T17:37:04.344Z,2.53
2023-03-29T17:40:14.263Z,1.87
2023-03-29T17:43:16.862Z,2.67
2023-03-29T17:46:23.294Z,2.17
2023-03-29T17:49:26.162Z,2.10
2023-03-29T17:52:29.643Z,2.57
2023-03-29T17:55:31.991Z,2.30
2023-03-29T17:58:34.520Z,2.40
2023-03-29T18:01:39.257Z,2.20
2023-03-29T18:04:42.245Z,2.80
2023-03-29T18:07:46.160Z,2.63
2023-03-29T18:10:48.880Z,2.20
2023-03-29T18:13:55.192Z,2.53
2023-03-29T18:16:57.678Z,2.33
2023-03-29T18:20:00.346Z,2.50
2023-03-29T18:23:03.147Z,2.17
2023-03-29T18:26:07.080Z,2.60
2023-03-29T18:29:10.022Z,2.27
2023-03-29T18:32:13.265Z,2.90
2023-03-29T18:35:16.327Z,2.10
2023-03-29T18:38:21.690Z,2.40
2023-03-29T18:41:24.636Z,2.50
2023-03-29T18:44:28.035Z,2.70
2023-03-29T18:47:30.955Z,2.60
2023-03-29T18:50:35.508Z,2.20
2023-03-29T18:53:42.233Z,2.27
2023-03-29T18:56:45.138Z,2.60
2023-03-29T18:59:49.044Z,2.60
2023-03-29T19:02:52.202Z,2.53
2023-03-29T19:05:56.069Z,2.50
2023-03-29T19:09:02.545Z,2.40
2023-03-29T19:12:05.771Z,2.00
2023-03-29T19:15:10.292Z,2.10
2023-03-29T19:18:14.744Z,2.00
2023-03-29T19:21:20.778Z,2.30
2023-03-29T19:24:25.080Z,2.33
2023-03-29T19:27:28.257Z,2.60
2023-03-29T19:30:32.125Z,2.30
2023-03-29T19:33:37.012Z,2.23
2023-03-29T19:36:40.171Z,2.40
2023-03-29T19:39:42.826Z,2.10
2023-03-29T19:42:48.183Z,2.10
2023-03-29T19:45:51.333Z,2.07
2023-03-29T19:48:56.387Z,1.93
2023-03-29T19:52:00.522Z,2.23
2023-03-29T19:55:03.269Z,2.27
2023-03-29T19:58:07.873Z,1.70
2023-03-29T20:01:10.186Z,2.07
2023-03-29T20:04:12.654Z,2.10
2023-03-29T20:07:15.274Z,2.07
2023-03-29T20:10:17.980Z,2.07
2023-03-29T20:13:31.323Z,2.30
2023-03-29T20:16:41.999Z,1.70
2023-03-29T20:19:44.257Z,1.70
2023-03-29T20:22:46.530Z,1.70
2023-03-29T20:25:48.852Z,1.80
2023-03-29T20:28:51.198Z,2.00
2023-03-29T20:31:53.750Z,1.83
2023-03-29T20:34:56.140Z,1.67
2023-03-29T20:37:58.188Z,1.53
2023-03-29T20:41:00.339Z,1.77
2023-03-29T20:44:03.108Z,1.67
2023-03-29T20:47:08.732Z,1.77
2023-03-29T20:50:11.079Z,2.20
2023-03-29T20:53:13.905Z,1.73
2023-03-29T20:56:16.100Z,1.77
2023-03-29T20:59:18.268Z,1.80
2023-03-29T21:02:23.038Z,1.77
2023-03-29T21:05:27.197Z,1.83
2023-03-29T21:08:29.915Z,1.80
2023-03-29T21:11:32.218Z,1.43
2023-03-29T21:14:34.207Z,1.40
2023-03-29T21:17:37.368Z,1.53
2023-03-29T21:20:39.468Z,1.63
2023-03-29T21:23:41.474Z,1.73
2023-03-29T21:26:43.545Z,1.33
2023-03-29T21:29:45.830Z,1.40
2023-03-29T21:32:47.939Z,1.10
2023-03-29T21:35:50.770Z,1.80
2023-03-29T21:38:53.014Z,1.40
2023-03-29T21:41:56.270Z,1.57
2023-03-29T21:44:58.312Z,1.30
2023-03-29T21:48:00.560Z,1.50
2023-03-29T21:51:03.172Z,1.50
2023-03-29T21:54:05.487Z,1.53
2023-03-29T21:57:07.524Z,1.50
2023-03-29T22:00:11.487Z,1.27
2023-03-29T22:03:14.371Z,1.30
2023-03-29T22:06:16.476Z,1.17
2023-03-29T22:09:20.636Z,1.07
2023-03-29T22:12:22.946Z,1.10
2023-03-29T22:15:25.059Z,0.97
2023-03-29T22:18:30.300Z,1.10
2023-03-29T22:21:32.577Z,1.00
2023-03-29T22:24:34.626Z,1.13
2023-03-29T22:27:36.931Z,1.20
2023-03-29T22:30:39.149Z,1.33
2023-03-29T22:33:42.196Z,1.00
2023-03-29T22:36:44.302Z,1.00
2023-03-29T22:39:46.610Z,1.10
2023-03-29T22:42:48.619Z,1.20
2023-03-29T22:45:50.750Z,1.17
2023-03-29T22:48:53.277Z,1.23
2023-03-29T22:51:55.478Z,1.30
2023-03-29T22:54:57.510Z,1.03
2023-03-29T22:57:59.531Z,0.93
2023-03-29T23:01:02.063Z,1.07
2023-03-29T23:04:04.714Z,1.20
2023-03-29T23:07:06.865Z,1.00
2023-03-29T23:10:09.469Z,1.27
2023-03-29T23:13:13.732Z,1.20
2023-03-29T23:16:16.846Z,1.03
2023-03-29T23:19:18.888Z,1.13
2023-03-29T23:22:21.311Z,1.17
2023-03-29T23:25:24.834Z,1.00
2023-03-29T23:28:30.670Z,1.00
2023-03-29T23:31:33.981Z,1.37
2023-03-29T23:34:36.232Z,1.23
2023-03-29T23:37:38.330Z,1.20
2023-03-29T23:40:40.337Z,0.90
2023-03-29T23:43:44.576Z,1.20
2023-03-29T23:46:46.633Z,1.03
2023-03-29T23:49:48.709Z,1.17
2023-03-29T23:52:51.778Z,1.50
2023-03-29T23:56:00.612Z,1.20
2023-03-29T23:59:04.639Z,1.10
